Time;durP1;ratioP1;P1;durP2;ratioP2;P2;SDS_P1;SDS_P2;PMS_P1;PMS_P2;Temp;Humidity;BMP_temperature;BMP_pressure;BME280_temperature;BME280_humidity;BME280_pressure;Samples;Min_cycle;Max_cycle;Signal;HPM_P1;HPM_P2
2022/06/19 00:01:13;;;;;;;4.70;1.67;;;;;;;24.71;40.87;101299.09;5039880;28;20036;-88
2022/06/19 00:03:45;;;;;;;4.60;2.22;;;;;;;24.64;40.70;101286.81;5043878;28;20032;-88
2022/06/19 00:06:11;;;;;;;5.90;2.78;;;;;;;24.66;40.78;101288.25;5061849;28;20118;-88
2022/06/19 00:08:37;;;;;;;5.35;2.50;;;;;;;24.69;40.85;101293.16;5060131;28;20755;-88
2022/06/19 00:11:05;;;;;;;5.10;2.10;;;;;;;24.65;40.98;101286.59;5056864;28;20083;-89
2022/06/19 00:13:31;;;;;;;6.00;2.17;;;;;;;24.68;40.72;101294.19;5056315;28;20028;-88
2022/06/19 00:15:57;;;;;;;4.65;2.10;;;;;;;24.66;40.97;101296.22;5060152;28;20029;-89
2022/06/19 00:18:23;;;;;;;3.58;2.00;;;;;;;24.71;40.57;101292.94;5062365;28;20548;-89
2022/06/19 00:20:48;;;;;;;3.83;1.98;;;;;;;24.64;40.90;101290.28;5040710;28;20036;-89
2022/06/19 00:23:14;;;;;;;4.20;2.08;;;;;;;24.71;40.89;101296.44;5062526;28;20060;-89
2022/06/19 00:25:39;;;;;;;5.40;2.05;;;;;;;24.66;40.61;101290.91;5060096;28;20032;-89
2022/06/19 00:28:06;;;;;;;4.93;2.10;;;;;;;24.74;40.89;101311.19;5044634;28;20037;-89
2022/06/19 00:30:32;;;;;;;4.55;2.10;;;;;;;24.73;40.78;101314.06;5059220;28;20068;-89
2022/06/19 00:32:58;;;;;;;5.63;2.10;;;;;;;24.72;40.80;101305.25;5026316;28;20044;-88
2022/06/19 00:35:26;;;;;;;2.45;1.67;;;;;;;24.75;41.05;101302.19;5040313;28;21216;-88
2022/06/19 00:37:53;;;;;;;4.30;2.47;;;;;;;24.70;41.13;101281.47;5057724;28;20044;-87
2022/06/19 00:40:18;;;;;;;3.83;1.90;;;;;;;24.68;40.71;101264.88;5056463;28;20035;-87
2022/06/19 00:42:44;;;;;;;5.47;2.10;;;;;;;24.79;40.88;101270.66;5040318;28;21639;-88
2022/06/19 00:45:31;;;;;;;3.90;2.00;;;;;;;24.73;40.92;101260.78;5058454;28;20272;-88
2022/06/19 00:47:57;;;;;;;3.47;1.92;;;;;;;24.76;40.81;101281.69;5057708;28;20036;-88
2022/06/19 00:50:27;;;;;;;5.75;2.28;;;;;;;24.75;41.00;101298.69;5043723;28;20045;-88
2022/06/19 00:52:53;;;;;;;5.47;2.05;;;;;;;24.80;40.77;101304.25;5057403;28;20527;-88
2022/06/19 00:55:26;;;;;;;4.15;2.08;;;;;;;24.75;40.89;101293.38;5058656;28;20040;-88
2022/06/19 00:58:00;;;;;;;4.82;2.13;;;;;;;24.68;40.92;101280.03;5063700;28;20109;-88
2022/06/19 01:00:29;;;;;;;3.03;1.80;;;;;;;24.75;40.82;101298.69;5061320;28;20082;-87
2022/06/19 01:03:11;;;;;;;6.75;1.92;;;;;;;24.71;41.03;101296.44;5055562;28;20119;-88
2022/06/19 01:05:41;;;;;;;4.13;1.98;;;;;;;24.78;40.75;101304.47;5056849;28;20504;-88
2022/06/19 01:08:06;;;;;;;5.60;2.30;;;;;;;24.78;40.79;101304.47;5060192;28;20040;-88
2022/06/19 01:10:36;;;;;;;3.95;1.73;;;;;;;24.78;40.80;101285.81;5043216;28;20044;-88
2022/06/19 01:13:02;;;;;;;4.75;1.70;;;;;;;24.72;40.90;101289.25;5059039;28;20123;-88
2022/06/19 01:15:28;;;;;;;4.50;1.92;;;;;;;24.71;40.75;101282.31;5042652;28;20060;-88
2022/06/19 01:17:59;;;;;;;3.10;1.70;;;;;;;24.69;41.04;101290.50;5044873;28;20123;-89
2022/06/19 01:20:27;;;;;;;3.70;2.13;;;;;;;24.82;40.83;101328.84;5046961;28;20028;-87
2022/06/19 01:23:05;;;;;;;2.78;1.50;;;;;;;24.82;40.77;101344.81;5061080;28;20083;-88
2022/06/19 01:25:35;;;;;;;4.43;2.17;;;;;;;24.70;41.04;101360.56;5043143;28;20540;-89
2022/06/19 01:30:53;;;;;;;3.20;1.85;;;;;;;24.71;40.86;101394.16;5040631;28;20724;-89
2022/06/19 01:33:22;;;;;;;4.07;1.70;;;;;;;24.80;40.95;101432.13;5029133;28;20044;-88
2022/06/19 01:35:50;;;;;;;3.72;1.85;;;;;;;24.79;40.89;101425.97;5044080;28;20128;-88
2022/06/19 01:38:20;;;;;;;2.55;1.58;;;;;;;24.76;41.00;101409.53;5058091;28;20040;-91
2022/06/19 01:40:51;;;;;;;2.92;1.52;;;;;;;24.77;40.95;101382.69;5067080;28;20067;-91
2022/06/19 01:43:18;;;;;;;5.55;2.30;;;;;;;24.70;40.98;101366.69;5070064;28;20745;-92
2022/06/19 01:45:49;;;;;;;4.00;1.67;;;;;;;24.66;40.97;101361.97;5066327;28;20038;-92
2022/06/19 01:48:15;;;;;;;4.90;2.30;;;;;;;24.82;41.12;101371.47;5047977;28;20039;-91
2022/06/19 01:50:42;;;;;;;2.15;1.33;;;;;;;24.72;40.85;101318.56;5050883;28;20127;-92
2022/06/19 01:53:15;;;;;;;4.30;2.05;;;;;;;24.77;41.21;101328.59;5044530;28;20401;-92
2022/06/19 01:55:41;;;;;;;2.08;1.60;;;;;;;24.70;41.17;101307.28;5065675;28;20776;-91
2022/06/19 01:58:08;;;;;;;4.18;1.90;;;;;;;24.76;40.87;101297.66;5066099;28;20043;-91
2022/06/19 02:00:35;;;;;;;2.60;1.55;;;;;;;24.71;41.03;101275.13;5048935;28;20036;-91
2022/06/19 02:03:08;;;;;;;2.97;1.77;;;;;;;24.75;41.14;101275.53;5050302;28;20028;-92
2022/06/19 02:05:36;;;;;;;3.67;2.05;;;;;;;24.76;40.98;101279.84;5068463;28;20040;-91
2022/06/19 02:08:03;;;;;;;4.18;1.80;;;;;;;24.80;40.99;101280.28;5036045;28;20131;-92
2022/06/19 02:10:29;;;;;;;2.47;1.27;;;;;;;24.77;41.06;101262.84;5058272;28;20827;-91
2022/06/19 02:12:57;;;;;;;2.35;1.35;;;;;;;24.65;41.15;101257.31;5052640;28;20120;-91
2022/06/19 02:15:23;;;;;;;2.53;1.63;;;;;;;24.77;41.22;101278.81;5070217;28;20048;-91
2022/06/19 02:17:52;;;;;;;4.10;1.90;;;;;;;24.81;41.06;101268.59;5067176;28;20104;-91
2022/06/19 02:20:19;;;;;;;;;;;;;;;24.79;41.18;101252.00;5063706;28;20059;-91
2022/06/19 02:22:44;;;;;;;1.98;1.52;;;;;;;24.70;41.17;101235.38;5046738;28;20370;-90
2022/06/19 02:25:10;;;;;;;2.75;1.50;;;;;;;24.74;40.93;101217.16;5049347;28;20032;-91
2022/06/19 02:27:37;;;;;;;2.33;1.60;;;;;;;24.80;40.96;101187.06;5046685;28;20060;-91
2022/06/19 02:30:05;;;;;;;3.88;1.50;;;;;;;24.76;41.11;101159.19;5065954;28;20139;-91
2022/06/19 02:32:56;;;;;;;3.13;1.40;;;;;;;24.62;41.17;101183.16;5045177;28;20032;-90
2022/06/19 02:35:23;;;;;;;3.67;1.58;;;;;;;24.77;41.20;101222.06;5065797;28;20051;-91
2022/06/19 02:37:53;;;;;;;4.38;2.08;;;;;;;24.73;41.17;101210.19;5049607;28;20040;-91
2022/06/19 02:40:39;;;;;;;2.22;1.67;;;;;;;24.74;41.26;101249.13;5065050;28;20057;-91
2022/06/19 02:43:12;;;;;;;2.88;1.70;;;;;;;24.76;41.17;101266.53;5067833;28;20041;-91
2022/06/19 02:45:39;;;;;;;3.03;1.50;;;;;;;24.73;41.24;101261.59;5066562;28;20051;-91
2022/06/19 02:48:06;;;;;;;2.65;1.60;;;;;;;24.75;41.00;101294.19;5046492;28;20067;-91
2022/06/19 02:50:34;;;;;;;2.38;1.27;;;;;;;24.74;41.57;101352.97;5067713;28;20075;-91
2022/06/19 02:53:00;;;;;;;3.65;1.80;;;;;;;24.73;41.20;101274.94;5063852;28;20107;-91
2022/06/19 02:55:26;;;;;;;3.58;2.00;;;;;;;24.72;41.42;101249.31;5065519;28;20040;-91
2022/06/19 02:57:52;;;;;;;3.75;1.95;;;;;;;24.71;41.25;101292.94;5068072;28;20043;-93
2022/06/19 03:00:24;;;;;;;2.90;1.70;;;;;;;24.68;41.39;101304.00;5051599;28;20029;-92
2022/06/19 03:02:52;;;;;;;3.58;1.45;;;;;;;24.61;41.53;101321.81;5071776;28;20494;-92
2022/06/19 03:05:22;;;;;;;2.35;1.48;;;;;;;24.74;41.34;101337.00;5050956;28;20474;-92
2022/06/19 03:07:48;;;;;;;2.92;1.45;;;;;;;24.67;41.43;101343.13;5045875;28;20132;-92
2022/06/19 03:10:14;;;;;;;3.08;1.58;;;;;;;24.68;41.38;101347.44;5066266;28;20048;-91
2022/06/19 03:12:40;;;;;;;2.83;2.00;;;;;;;24.76;41.39;101342.94;5035589;28;20036;-91
2022/06/19 03:15:06;;;;;;;3.50;2.05;;;;;;;24.70;41.46;101328.59;5068662;28;20113;-91
2022/06/19 03:17:32;;;;;;;3.78;1.48;;;;;;;24.76;41.50;101308.31;5042562;28;20040;-91
2022/06/19 03:19:58;;;;;;;4.00;1.70;;;;;;;24.74;41.36;101297.88;5048566;28;20036;-91
2022/06/19 03:22:23;;;;;;;4.80;2.20;;;;;;;24.71;41.62;101282.31;5066423;28;20048;-90
2022/06/19 03:24:49;;;;;;;4.47;1.85;;;;;;;24.73;41.51;101276.78;5069017;28;20123;-91
2022/06/19 03:27:15;;;;;;;3.30;1.42;;;;;;;24.62;41.54;101271.03;5065187;28;20037;-91
2022/06/19 03:29:41;;;;;;;2.25;1.30;;;;;;;24.71;41.76;101282.31;5049270;28;20441;-90
2022/06/19 03:32:10;;;;;;;5.30;1.50;;;;;;;24.70;41.59;101293.97;5053469;28;20046;-90
2022/06/19 03:34:35;;;;;;;2.70;1.75;;;;;;;24.69;41.81;101321.63;5070775;28;20107;-90
2022/06/19 03:37:01;;;;;;;3.85;1.95;;;;;;;24.64;41.56;101348.88;5072461;28;20092;-90
2022/06/19 03:39:26;;;;;;;2.67;1.60;;;;;;;24.71;41.66;101373.66;5034670;28;20021;-90
2022/06/19 03:41:52;;;;;;;3.28;1.48;;;;;;;24.68;41.60;101347.44;5048457;28;20045;-90
2022/06/19 03:44:18;;;;;;;2.40;1.60;;;;;;;24.77;41.55;101341.91;5067146;28;20070;-88
2022/06/19 03:46:43;;;;;;;4.07;1.88;;;;;;;24.66;41.76;101298.88;5054362;28;20044;-90
2022/06/19 03:49:09;;;;;;;5.28;2.05;;;;;;;24.65;41.73;101259.16;5067822;28;20028;-90
2022/06/19 03:51:35;;;;;;;2.75;1.50;;;;;;;24.59;41.69;101217.31;5067854;28;20040;-90
2022/06/19 03:54:01;;;;;;;3.75;1.85;;;;;;;24.71;41.70;101138.50;5036059;28;20063;-90
2022/06/19 03:56:31;;;;;;;2.92;1.52;;;;;;;24.66;41.73;101124.97;5051292;28;20044;-91
2022/06/19 03:58:58;;;;;;;3.00;1.40;;;;;;;24.67;41.68;101156.72;5068180;28;20033;-90
2022/06/19 04:01:26;;;;;;;3.10;1.50;;;;;;;24.68;41.76;101168.19;5061575;28;20042;-91
2022/06/19 04:03:54;;;;;;;4.10;1.70;;;;;;;24.58;41.72;101157.94;5067331;28;20462;-91
2022/06/19 04:06:21;;;;;;;2.53;1.45;;;;;;;24.62;41.82;101179.69;5067838;28;20199;-91
2022/06/19 04:08:47;;;;;;;3.70;1.65;;;;;;;24.64;41.68;101190.94;5047811;28;20483;-91
2022/06/19 04:11:15;;;;;;;3.33;1.48;;;;;;;24.66;41.68;101136.44;5067550;28;20068;-92
2022/06/19 04:13:40;;;;;;;6.55;1.80;;;;;;;24.66;41.69;101117.00;5053743;28;20035;-91
2022/06/19 04:16:08;;;;;;;3.28;1.67;;;;;;;24.67;41.90;101134.59;5039486;28;20543;-91
2022/06/19 04:18:34;;;;;;;3.88;1.30;;;;;;;24.55;41.64;101109.59;5052874;28;20107;-91
2022/06/19 04:21:01;;;;;;;2.28;1.50;;;;;;;24.59;41.82;101102.84;5052608;28;20120;-91
2022/06/19 04:23:27;;;;;;;4.50;1.85;;;;;;;24.63;41.90;101096.94;5070872;28;20056;-91
2022/06/19 04:25:54;;;;;;;3.22;1.58;;;;;;;24.63;41.77;101080.13;5071999;28;20051;-90
2022/06/19 04:28:23;;;;;;;3.10;1.17;;;;;;;24.63;41.70;101080.94;5072096;28;20033;-91
2022/06/19 04:30:52;;;;;;;2.33;1.58;;;;;;;24.57;41.80;101073.75;5074293;28;20044;-92
2022/06/19 04:33:20;;;;;;;3.70;1.45;;;;;;;24.57;41.91;101073.75;5058396;28;20032;-92
2022/06/19 04:35:47;;;;;;;2.25;1.40;;;;;;;24.71;41.72;101058.59;5056444;28;20143;-92
2022/06/19 04:38:13;;;;;;;3.88;1.50;;;;;;;24.68;41.67;101025.22;5054262;28;20033;-93
2022/06/19 04:40:38;;;;;;;3.60;1.45;;;;;;;24.68;41.74;101014.56;5068855;28;20036;-91
2022/06/19 04:43:05;;;;;;;2.92;1.50;;;;;;;24.55;41.88;101008.44;5035479;28;20032;-91
2022/06/19 04:45:32;;;;;;;4.28;1.77;;;;;;;24.66;41.71;101016.63;5050898;28;20063;-92
2022/06/19 04:47:58;;;;;;;3.45;1.92;;;;;;;24.62;41.81;101017.25;5032347;28;20044;-92
2022/06/19 04:50:24;;;;;;;3.00;1.38;;;;;;;24.66;41.73;101016.63;5037658;28;20057;-92
2022/06/19 04:52:50;;;;;;;2.15;1.40;;;;;;;24.45;41.89;101021.34;5053165;28;20024;-93
2022/06/19 04:55:17;;;;;;;2.70;1.50;;;;;;;24.58;41.85;101066.59;5033625;28;20039;-92
2022/06/19 04:57:43;;;;;;;4.90;1.88;;;;;;;24.63;41.91;101104.09;5068954;28;20037;-92
2022/06/19 05:00:12;;;;;;;4.60;1.90;;;;;;;24.61;41.71;101111.47;5072589;28;20037;-91
2022/06/19 05:02:37;;;;;;;2.45;1.25;;;;;;;24.61;41.98;101138.09;5050817;28;20029;-91
2022/06/19 05:05:05;;;;;;;3.53;1.65;;;;;;;24.66;41.94;101144.44;5053698;28;20486;-91
2022/06/19 05:07:31;;;;;;;4.28;1.48;;;;;;;24.65;42.01;101156.13;5069051;28;20044;-91
2022/06/19 05:09:57;;;;;;;4.03;2.17;;;;;;;24.60;41.98;101177.22;5069015;28;20044;-92
2022/06/19 05:12:23;;;;;;;2.83;1.40;;;;;;;24.64;41.90;101186.44;5067972;28;20049;-92
2022/06/19 05:14:48;;;;;;;4.35;1.55;;;;;;;24.67;41.87;101171.88;5069709;28;20040;-90
2022/06/19 05:17:14;;;;;;;2.75;1.50;;;;;;;24.62;42.02;101158.38;5065531;28;20043;-90
2022/06/19 05:19:40;;;;;;;3.45;1.40;;;;;;;24.63;41.93;101122.72;5066708;28;20029;-90
2022/06/19 05:22:06;;;;;;;2.70;1.10;;;;;;;24.62;41.79;101103.28;5068938;28;20042;-91
2022/06/19 05:24:32;;;;;;;2.88;1.30;;;;;;;24.64;41.81;101103.88;5065503;28;20113;-91
2022/06/19 05:26:57;;;;;;;2.83;1.45;;;;;;;24.64;41.80;101105.72;5052415;28;20063;-91
2022/06/19 05:29:23;;;;;;;4.53;1.92;;;;;;;24.67;41.67;101108.78;5025809;28;20056;-90
2022/06/19 05:31:49;;;;;;;1.98;1.27;;;;;;;24.61;41.96;101103.47;5048929;28;20115;-92
2022/06/19 05:34:14;;;;;;;3.90;1.45;;;;;;;24.63;41.76;101072.97;5029676;28;20057;-91
2022/06/19 05:36:40;;;;;;;2.35;1.25;;;;;;;24.63;41.60;101082.78;5046902;28;20086;-91
2022/06/19 05:39:06;;;;;;;3.95;1.38;;;;;;;24.58;41.98;101066.59;5066744;28;20032;-91
2022/06/19 05:41:32;;;;;;;3.45;1.38;;;;;;;24.62;41.95;101095.28;5044238;28;20036;-92
2022/06/19 05:43:57;;;;;;;2.70;1.60;;;;;;;24.51;42.05;101087.09;5063479;28;20441;-90
2022/06/19 05:46:23;;;;;;;3.28;1.35;;;;;;;24.67;41.79;101124.78;5066885;28;20065;-90
2022/06/19 05:48:50;;;;;;;3.22;1.40;;;;;;;24.58;41.65;101107.34;5053389;28;20671;-90
2022/06/19 05:51:18;;;;;;;2.88;1.77;;;;;;;24.67;41.72;101121.28;5069995;28;20036;-90
2022/06/19 05:53:48;;;;;;;4.35;1.60;;;;;;;24.66;41.92;101109.81;5065064;28;20036;-90
2022/06/19 05:56:14;;;;;;;2.33;1.55;;;;;;;24.65;41.83;101115.34;5069540;28;20116;-92
2022/06/19 05:58:41;;;;;;;2.92;1.30;;;;;;;24.66;41.75;101119.66;5066255;28;20541;-92
2022/06/19 06:01:07;;;;;;;4.10;1.33;;;;;;;24.66;41.82;101114.31;5070317;28;20043;-91
2022/06/19 06:03:33;;;;;;;2.65;1.60;;;;;;;24.62;41.77;101132.56;5066830;28;20795;-90
2022/06/19 06:06:00;;;;;;;3.17;1.83;;;;;;;24.53;42.10;101128.44;5049621;28;20044;-89
2022/06/19 06:08:26;;;;;;;3.03;1.48;;;;;;;24.62;41.92;101121.09;5053015;28;20147;-91
2022/06/19 06:10:51;;;;;;;3.75;1.40;;;;;;;24.62;41.89;101131.75;5045535;28;20140;-90
2022/06/19 06:13:17;;;;;;;2.53;1.23;;;;;;;24.60;41.98;101120.47;5051931;28;20036;-91
2022/06/19 06:15:47;;;;;;;4.10;1.30;;;;;;;24.48;41.82;101119.44;5052154;28;20044;-90
2022/06/19 06:18:14;;;;;;;2.95;1.65;;;;;;;24.57;42.03;101129.66;5027763;28;20085;-90
2022/06/19 06:20:40;;;;;;;2.28;1.30;;;;;;;24.55;41.89;101139.72;5060646;28;20027;-90
2022/06/19 06:23:06;;;;;;;3.35;1.35;;;;;;;24.61;41.94;101159.41;5068215;28;20036;-90
2022/06/19 06:25:32;;;;;;;2.13;1.40;;;;;;;24.56;41.88;101169.81;5051415;28;20097;-90
2022/06/19 06:27:57;;;;;;;2.20;1.27;;;;;;;24.59;42.06;101174.72;5047788;28;20044;-90
2022/06/19 06:30:23;;;;;;;2.65;1.23;;;;;;;24.58;42.01;101179.22;5047789;28;20056;-92
2022/06/19 06:32:48;;;;;;;2.42;1.10;;;;;;;24.56;41.90;101140.53;5071716;28;20064;-92
2022/06/19 06:35:14;;;;;;;2.05;1.17;;;;;;;24.54;42.10;101148.72;5032746;28;20045;-91
2022/06/19 06:37:40;;;;;;;2.55;1.27;;;;;;;24.53;42.12;101149.75;5064863;28;20033;-91
2022/06/19 06:40:10;;;;;;;3.03;1.63;;;;;;;24.59;42.05;101164.06;5050012;28;20033;-91
2022/06/19 06:42:36;;;;;;;1.58;1.20;;;;;;;24.55;42.05;101138.88;5045209;28;20045;-92
2022/06/19 06:45:07;;;;;;;4.07;1.60;;;;;;;24.60;41.83;101155.91;5048889;28;20940;-90
2022/06/19 06:47:32;;;;;;;3.10;1.25;;;;;;;24.52;41.99;101171.25;5062538;28;20562;-92
2022/06/19 06:49:58;;;;;;;3.20;1.63;;;;;;;24.58;41.92;101162.44;5064566;28;20110;-88
2022/06/19 06:52:23;;;;;;;2.20;1.15;;;;;;;24.59;41.94;101182.72;5063298;28;20684;-88
2022/06/19 06:54:49;;;;;;;2.00;1.00;;;;;;;24.59;42.06;101172.06;5065647;28;20082;-89
2022/06/19 06:57:14;;;;;;;2.22;1.50;;;;;;;24.54;42.21;101158.56;5059161;28;20035;-89
2022/06/19 06:59:40;;;;;;;3.35;1.20;;;;;;;24.56;42.06;101157.31;5045572;28;20040;-88
2022/06/19 07:02:06;;;;;;;2.03;1.15;;;;;;;24.56;41.91;101159.97;5061644;28;20543;-88
2022/06/19 07:04:31;;;;;;;2.10;1.48;;;;;;;24.52;42.08;101141.97;5065445;28;20107;-89
2022/06/19 07:06:57;;;;;;;1.60;0.90;;;;;;;24.56;42.10;101161.81;5067856;28;20271;-88
2022/06/19 07:09:23;;;;;;;2.25;1.20;;;;;;;24.56;42.07;101181.28;5071227;28;20084;-89
2022/06/19 07:11:49;;;;;;;3.80;1.52;;;;;;;24.52;42.09;101173.91;5068994;28;20060;-88
2022/06/19 07:14:17;;;;;;;2.30;1.00;;;;;;;24.57;42.08;101182.09;5066637;28;20036;-88
2022/06/19 07:16:43;;;;;;;3.63;1.60;;;;;;;24.60;42.05;101195.03;5066019;28;20112;-89
2022/06/19 07:19:09;;;;;;;3.80;1.38;;;;;;;24.52;42.12;101209.34;5068930;28;20577;-86
2022/06/19 07:21:35;;;;;;;2.75;1.55;;;;;;;24.43;42.22;101199.09;5048986;28;20043;-85
2022/06/19 07:24:01;;;;;;;4.55;1.45;;;;;;;24.55;42.13;101213.44;5066486;28;20052;-85
2022/06/19 07:26:28;;;;;;;1.88;1.33;;;;;;;24.58;42.00;101205.84;5065088;28;20048;-85
2022/06/19 07:28:53;;;;;;;1.77;1.10;;;;;;;24.48;42.20;101194.78;5062672;28;21125;-86
2022/06/19 07:31:19;;;;;;;2.85;1.58;;;;;;;24.57;41.98;101214.88;5065838;28;20049;-86
2022/06/19 07:33:45;;;;;;;2.08;1.10;;;;;;;24.51;42.00;101213.03;5064485;28;20383;-86
2022/06/19 07:36:15;;;;;;;3.17;1.23;;;;;;;24.54;42.03;101222.44;5064448;28;20056;-86
2022/06/19 07:38:40;;;;;;;;;;;;;;;24.60;42.13;101227.00;5068422;28;20029;-86
2022/06/19 07:41:06;;;;;;;3.15;1.23;;;;;;;24.57;41.96;101241.50;5067775;28;20392;-88
2022/06/19 07:43:32;;;;;;;3.25;1.17;;;;;;;24.47;42.06;101235.75;5068656;28;20032;-87
2022/06/19 07:45:57;;;;;;;2.95;1.08;;;;;;;24.55;42.05;101264.84;5070197;28;20032;-87
2022/06/19 07:51:07;;;;;;;2.30;1.25;;;;;;;24.58;42.08;101260.94;5052808;28;20087;-88
2022/06/19 07:53:32;;;;;;;1.77;0.80;;;;;;;24.51;42.04;101268.94;5068997;28;20072;-87
2022/06/19 07:55:58;;;;;;;3.80;1.30;;;;;;;24.54;42.18;101276.50;5069934;28;20100;-87
2022/06/19 07:58:24;;;;;;;1.80;1.10;;;;;;;24.61;42.12;101288.03;5068068;28;20044;-89
2022/06/19 08:00:49;;;;;;;4.40;1.52;;;;;;;24.54;42.07;101311.13;5070858;28;20028;-87
2022/06/19 08:03:15;;;;;;;3.13;1.63;;;;;;;24.49;42.27;101304.78;5072131;28;20048;-87
2022/06/19 08:05:43;;;;;;;2.72;1.25;;;;;;;24.56;41.92;101308.25;5066688;28;20114;-88
2022/06/19 08:08:24;;;;;;;2.13;1.30;;;;;;;24.50;42.18;101303.75;5071584;28;20047;-88
2022/06/19 08:10:52;;;;;;;3.30;1.38;;;;;;;24.51;42.06;101306.22;5073319;28;20126;-88
2022/06/19 08:13:20;;;;;;;1.85;0.82;;;;;;;24.53;42.23;101321.97;5071422;28;20059;-87
2022/06/19 08:15:51;;;;;;;1.77;1.17;;;;;;;24.44;42.53;101312.53;5072317;28;20044;-88
2022/06/19 08:18:16;;;;;;;4.32;1.55;;;;;;;24.51;42.28;101324.84;5069595;28;20044;-88
2022/06/19 08:20:42;;;;;;;2.38;1.20;;;;;;;24.49;42.21;101326.88;5067162;28;20589;-87
2022/06/19 08:23:08;;;;;;;2.78;1.58;;;;;;;24.51;42.13;101335.50;5070599;28;20055;-87
2022/06/19 08:25:33;;;;;;;2.50;1.30;;;;;;;24.50;42.06;101328.53;5049761;28;20064;-87
2022/06/19 08:27:59;;;;;;;2.42;1.40;;;;;;;24.55;42.21;101352.72;5061878;28;20042;-87
2022/06/19 08:30:29;;;;;;;2.03;1.30;;;;;;;24.50;42.25;101352.50;5067661;28;20050;-88
2022/06/19 08:32:55;;;;;;;1.27;1.13;;;;;;;24.45;42.05;101348.78;5067536;28;20049;-87
2022/06/19 08:35:21;;;;;;;1.40;1.20;;;;;;;24.57;42.12;101356.00;5063725;28;20052;-87
2022/06/19 08:37:50;;;;;;;1.67;1.10;;;;;;;24.50;41.93;101347.16;5065029;28;20094;-87
2022/06/19 08:40:41;;;;;;;2.70;1.08;;;;;;;24.49;41.97;101353.50;5048241;28;20036;-87
2022/06/19 08:43:07;;;;;;;4.10;1.42;;;;;;;24.55;42.23;101351.88;5062715;28;20036;-90
2022/06/19 08:45:55;;;;;;;4.10;1.42;;;;;;;24.51;42.48;101346.13;5064255;28;20209;-87
2022/06/19 08:48:44;;;;;;;4.03;1.10;;;;;;;24.37;42.42;101326.63;5053930;28;20048;-86
2022/06/19 08:51:09;;;;;;;1.52;1.15;;;;;;;24.48;42.40;101335.06;5063671;28;20056;-87
2022/06/19 08:53:56;;;;;;;2.88;1.42;;;;;;;24.48;42.48;101340.41;5066671;28;20439;-86
2022/06/19 08:56:33;;;;;;;4.20;1.35;;;;;;;24.48;42.23;101338.56;5062588;28;20029;-86
2022/06/19 08:59:04;;;;;;;2.38;1.08;;;;;;;24.45;42.32;101333.63;5046346;28;20063;-88
2022/06/19 09:01:49;;;;;;;4.38;1.73;;;;;;;24.46;42.40;101337.94;5065052;28;20036;-87
2022/06/19 09:07:56;;;;;;;2.80;1.23;;;;;;;24.41;42.60;101321.72;5061778;28;20035;-88
2022/06/19 09:10:44;;;;;;;5.55;2.03;;;;;;;24.22;43.15;101325.91;5003419;28;20172;-87
2022/06/19 09:13:35;;;;;;;4.78;1.92;;;;;;;24.46;42.48;101332.63;5068287;28;20060;-88
2022/06/19 09:16:18;;;;;;;2.70;1.20;;;;;;;24.34;42.49;101320.88;5061828;28;20166;-87
2022/06/19 09:18:46;;;;;;;4.20;1.55;;;;;;;24.47;42.59;101342.25;5068561;28;20047;-87
2022/06/19 09:21:35;;;;;;;3.58;1.52;;;;;;;24.42;42.75;101339.34;5066604;28;20073;-87
2022/06/19 09:24:16;;;;;;;3.22;1.25;;;;;;;24.27;43.53;101346.63;5068160;28;20108;-87
2022/06/19 09:26:54;;;;;;;5.90;1.55;;;;;;;24.23;43.56;101353.31;5052943;28;20066;-88
2022/06/19 09:29:34;;;;;;;2.72;1.30;;;;;;;24.22;43.76;101335.72;5053510;28;20510;-89
2022/06/19 09:32:02;;;;;;;8.02;1.85;;;;;;;24.27;43.64;101342.13;5069632;28;20044;-89
2022/06/19 09:34:39;;;;;;;3.95;1.83;;;;;;;24.19;43.83;101334.28;5065727;28;20037;-88
2022/06/19 09:37:10;;;;;;;4.03;1.42;;;;;;;24.19;43.85;101320.16;5067672;28;20039;-88
2022/06/19 09:39:50;;;;;;;3.90;1.55;;;;;;;24.14;43.98;101306.63;5051914;28;20051;-88
2022/06/19 09:42:20;;;;;;;3.47;1.45;;;;;;;24.16;43.72;101299.25;5065940;28;20060;-88
2022/06/19 09:45:15;;;;;;;3.78;1.67;;;;;;;24.17;43.77;101298.25;5053495;28;20050;-89
2022/06/19 09:48:14;;;;;;;4.72;1.70;;;;;;;24.13;43.77;101289.84;5067428;28;20048;-88
2022/06/19 09:50:49;;;;;;;2.67;1.30;;;;;;;24.18;43.70;101276.75;5070079;28;20119;-80
2022/06/19 09:53:33;;;;;;;2.60;1.60;;;;;;;24.55;42.74;101275.50;5025207;28;20356;-88
2022/06/19 09:56:10;;;;;;;3.40;1.33;;;;;;;24.67;42.31;101257.09;5048377;28;20036;-88
2022/06/19 09:58:45;;;;;;;2.33;1.30;;;;;;;24.87;42.19;101263.28;5040522;28;20031;-84
2022/06/19 10:01:11;;;;;;;3.15;1.50;;;;;;;25.02;41.96;101270.31;5063756;28;20145;-86
2022/06/19 10:03:44;;;;;;;2.88;1.60;;;;;;;25.18;41.67;101276.06;5038325;28;20052;-81
2022/06/19 10:06:15;;;;;;;1.55;1.20;;;;;;;25.34;41.55;101277.50;5059565;28;20028;-80
2022/06/19 10:08:51;;;;;;;2.08;1.15;;;;;;;25.34;41.45;101266.84;5013427;28;20587;-85
2022/06/19 10:11:23;;;;;;;2.88;1.25;;;;;;;25.46;41.35;101272.34;5040154;28;20079;-81
2022/06/19 10:13:54;;;;;;;2.10;1.15;;;;;;;25.46;41.45;101275.84;5024272;28;20063;-87
2022/06/19 10:16:25;;;;;;;6.85;1.85;;;;;;;25.47;41.37;101288.13;5059857;28;20147;-87
2022/06/19 10:18:53;;;;;;;2.28;1.25;;;;;;;25.65;41.49;101300.84;5017276;28;20085;-78
2022/06/19 10:22:16;;;;;;;3.65;1.33;;;;;;;25.67;41.21;101293.44;5058137;28;20033;-85
2022/06/19 10:24:57;;;;;;;2.58;1.30;;;;;;;25.78;40.87;101290.19;5010691;28;20064;-90
2022/06/19 10:27:22;;;;;;;2.30;1.08;;;;;;;25.85;40.78;101293.69;5060566;28;20043;-83
2022/06/19 10:30:07;;;;;;;3.35;1.25;;;;;;;25.86;40.91;101281.97;5018967;28;20037;-87
2022/06/19 10:32:41;;;;;;;3.22;1.80;;;;;;;25.91;40.90;101284.03;5061000;28;20032;-87
2022/06/19 10:35:32;;;;;;;3.45;1.77;;;;;;;25.92;40.91;101282.16;5020209;28;20028;-89
2022/06/19 10:38:09;;;;;;;3.08;1.33;;;;;;;25.97;40.64;101264.50;5059815;28;20532;-85
2022/06/19 10:40:37;;;;;;;3.65;1.20;;;;;;;26.04;40.50;101265.31;5020281;28;20046;-80
2022/06/19 10:43:10;;;;;;;3.30;1.60;;;;;;;26.04;40.57;101278.66;5057695;28;20573;-86
2022/06/19 10:45:50;;;;;;;2.15;0.98;;;;;;;26.08;40.55;101273.72;5055950;28;20094;-87
2022/06/19 10:48:19;;;;;;;4.78;1.67;;;;;;;26.04;40.53;101275.16;5031750;28;20033;-92
2022/06/19 10:51:11;;;;;;;6.85;1.40;;;;;;;26.02;40.68;101267.34;5067669;28;20086;-93
2022/06/19 10:53:45;;;;;;;8.23;1.85;;;;;;;26.00;40.55;101276.59;5061486;28;20103;-85
2022/06/19 10:56:35;;;;;;;3.03;1.30;;;;;;;25.98;40.17;101259.97;5028752;28;20040;-86
2022/06/19 10:59:01;;;;;;;5.47;1.52;;;;;;;25.98;40.11;101249.31;5057480;28;20098;-86
2022/06/19 11:04:19;;;;;;;2.45;1.35;;;;;;;25.76;40.76;101236.22;5028790;28;20027;-89
2022/06/19 11:07:07;;;;;;;2.78;1.48;;;;;;;25.85;40.78;101250.16;5061586;28;20044;-89
2022/06/19 11:09:40;;;;;;;4.55;1.48;;;;;;;25.86;40.59;101267.81;5059503;28;20713;-89
2022/06/19 11:12:31;;;;;;;3.92;1.63;;;;;;;25.84;41.01;101259.19;5026167;28;20189;-89
2022/06/19 11:15:00;;;;;;;2.47;1.25;;;;;;;25.87;40.70;101277.47;5046823;28;20029;-89
2022/06/19 11:17:37;;;;;;;3.78;1.48;;;;;;;25.99;40.79;101289.13;5056223;28;20036;-89
2022/06/19 11:20:21;;;;;;;2.88;0.95;;;;;;;25.97;40.77;101303.69;5028164;28;20033;-89
2022/06/19 11:22:58;;;;;;;3.28;1.00;;;;;;;25.92;40.58;101301.66;5060735;28;20051;-89
2022/06/19 11:25:34;;;;;;;1.88;1.10;;;;;;;25.92;40.91;101311.50;5042685;28;20048;-89
2022/06/19 11:28:02;;;;;;;2.67;1.33;;;;;;;25.91;40.50;101313.38;5003677;28;20044;-90
2022/06/19 11:30:37;;;;;;;3.33;1.38;;;;;;;25.87;40.82;101315.63;5024151;28;20108;-90
2022/06/19 11:33:08;;;;;;;2.28;1.40;;;;;;;25.91;40.59;101324.03;5059767;28;20045;-90
2022/06/19 11:35:42;;;;;;;1.95;1.02;;;;;;;25.90;40.74;101323.22;5026391;28;20056;-89
2022/06/19 11:38:08;;;;;;;1.77;1.08;;;;;;;25.90;40.41;101333.88;5060279;28;20032;-90
2022/06/19 11:40:38;;;;;;;3.55;1.65;;;;;;;25.85;40.73;101331.03;5022147;28;20408;-89
2022/06/19 11:43:05;;;;;;;3.30;1.58;;;;;;;25.80;40.46;101336.16;5041373;28;20033;-91
2022/06/19 11:45:36;;;;;;;3.53;1.17;;;;;;;25.87;40.44;101345.00;5021282;28;20044;-90
2022/06/19 11:48:10;;;;;;;2.42;1.08;;;;;;;25.92;40.39;101338.19;5031499;28;20032;-89
2022/06/19 11:50:53;;;;;;;1.95;1.10;;;;;;;25.85;40.71;101323.03;5061775;28;20103;-88